Terminal Aerodrome Forecast
Issued by NWS

Home | Current Version | Previous Version | Text Only | Print | Product List | Glossary On
Versions: 1 2 3 4 5 6 7 8 9 10 11 12 13 14 15 16 17 18
000
FTUS46 KMTR 181700 RRA
TAFMRY
TAF
KMRY 181743Z 1818/1918 16003KT P6SM FEW027 BKN040 OVC050
     FM181900 25005KT P6SM FEW020 BKN050
     FM190200 14003KT P6SM FEW020 BKN050
     FM191300 13005KT P6SM -SHRA BKN030=

USA.gov is the U.S. government's official web portal to all federal, state and local government web resources and services.